createdAt,value
2018-04-25T00:00:05.428Z,11.73
2018-04-25T00:03:09.518Z,12.47
2018-04-25T00:06:12.873Z,15.50
2018-04-25T00:09:16.168Z,11.83
2018-04-25T00:12:19.480Z,18.50
2018-04-25T00:15:22.793Z,12.90
2018-04-25T00:18:26.100Z,12.30
2018-04-25T00:21:29.392Z,12.60
2018-04-25T00:24:32.718Z,9.87
2018-04-25T00:27:36.793Z,10.37
2018-04-25T00:30:40.105Z,10.60
2018-04-25T00:33:43.396Z,14.37
2018-04-25T00:36:46.720Z,7.80
2018-04-25T00:39:50.018Z,9.97
2018-04-25T00:42:54.094Z,13.40
2018-04-25T00:45:57.417Z,14.30
2018-04-25T00:49:00.732Z,12.37
2018-04-25T00:52:04.805Z,10.73
2018-04-25T00:55:08.122Z,12.23
2018-04-25T00:58:11.421Z,8.27
2018-04-25T01:01:14.737Z,8.57
2018-04-25T01:04:18.829Z,13.53
2018-04-25T01:07:22.125Z,10.47
2018-04-25T01:10:25.445Z,12.10
2018-04-25T01:13:29.510Z,9.93
2018-04-25T01:16:32.826Z,13.23
2018-04-25T01:19:36.126Z,10.70
2018-04-25T01:22:39.458Z,10.00
2018-04-25T01:25:42.754Z,13.07
2018-04-25T01:28:53.353Z,14.47
2018-04-25T01:31:56.651Z,13.73
2018-04-25T01:34:59.969Z,12.63
2018-04-25T01:38:06.738Z,15.07
2018-04-25T01:41:13.237Z,12.17
2018-04-25T01:44:22.097Z,11.50
2018-04-25T01:47:39.561Z,13.20
2018-04-25T01:50:42.869Z,11.63
2018-04-25T01:54:03.910Z,11.77
2018-04-25T01:57:25.581Z,10.73
2018-04-25T02:00:46.558Z,14.20
2018-04-25T02:03:59.894Z,12.60
2018-04-25T02:07:03.221Z,13.57
2018-04-25T02:10:07.282Z,10.90
2018-04-25T02:13:11.369Z,12.43
2018-04-25T02:16:14.686Z,10.67
2018-04-25T02:19:17.992Z,7.80
2018-04-25T02:22:21.301Z,9.80
2018-04-25T02:25:25.379Z,7.73
2018-04-25T02:28:28.668Z,5.57
2018-04-25T02:31:31.980Z,10.77
2018-04-25T02:34:35.298Z,6.73
2018-04-25T02:37:39.383Z,8.10
2018-04-25T02:40:42.681Z,10.30
2018-04-25T02:43:46.007Z,10.23
2018-04-25T02:46:50.083Z,7.90
2018-04-25T02:49:53.390Z,9.23
2018-04-25T02:52:56.703Z,8.77
2018-04-25T02:56:00.893Z,10.07
2018-04-25T02:59:04.106Z,8.83
2018-04-25T03:02:07.414Z,9.17
2018-04-25T03:05:10.710Z,8.73
2018-04-25T03:08:14.800Z,11.03
2018-04-25T03:11:18.095Z,10.27
2018-04-25T03:14:21.408Z,9.73
2018-04-25T03:17:24.734Z,11.50
2018-04-25T03:20:28.041Z,11.27
2018-04-25T03:23:31.353Z,11.47
2018-04-25T03:26:34.645Z,10.77
2018-04-25T03:29:37.969Z,13.70
2018-04-25T03:32:41.276Z,12.33
2018-04-25T03:35:44.585Z,10.50
2018-04-25T03:38:47.901Z,13.07
2018-04-25T03:41:51.985Z,11.10
2018-04-25T03:44:55.291Z,14.73
2018-04-25T03:47:59.381Z,11.37
2018-04-25T03:51:02.673Z,13.53
2018-04-25T03:54:06.059Z,11.93
2018-04-25T03:57:09.323Z,12.60
2018-04-25T04:00:12.618Z,11.60
2018-04-25T04:03:16.698Z,10.47
2018-04-25T04:06:20.005Z,9.97
2018-04-25T04:09:23.296Z,11.53
2018-04-25T04:12:26.613Z,13.23
2018-04-25T04:15:30.674Z,13.10
2018-04-25T04:18:33.988Z,12.83
2018-04-25T04:21:37.294Z,11.60
2018-04-25T04:24:40.611Z,10.70
2018-04-25T04:27:44.695Z,11.33
2018-04-25T04:30:48.827Z,12.67
2018-04-25T04:33:52.145Z,12.80
2018-04-25T04:36:56.196Z,13.23
2018-04-25T04:39:59.509Z,12.27
2018-04-25T04:43:02.806Z,12.87
2018-04-25T04:46:06.126Z,16.60
2018-04-25T04:49:09.437Z,15.40
2018-04-25T04:52:13.525Z,14.57
2018-04-25T04:55:16.845Z,14.37
2018-04-25T04:58:20.917Z,16.33
2018-04-25T05:01:24.241Z,21.37
2018-04-25T05:04:27.546Z,23.43
2018-04-25T05:07:30.861Z,30.63
2018-04-25T05:10:34.933Z,36.27
2018-04-25T05:13:38.267Z,25.07
2018-04-25T05:16:42.341Z,21.23
2018-04-25T05:19:45.675Z,25.20
2018-04-25T05:22:49.745Z,20.80
2018-04-25T05:25:53.069Z,13.60
2018-04-25T05:28:56.385Z,9.93
2018-04-25T05:32:00.482Z,10.93
2018-04-25T05:35:03.797Z,10.67
2018-04-25T05:38:07.868Z,9.93
2018-04-25T05:41:11.197Z,7.87
2018-04-25T05:44:14.500Z,7.13
2018-04-25T05:47:18.586Z,7.30
2018-04-25T05:50:21.897Z,8.90
2018-04-25T05:53:25.218Z,8.23
2018-04-25T05:56:29.282Z,7.07
2018-04-25T05:59:32.605Z,10.47
2018-04-25T06:02:35.939Z,9.23
2018-04-25T06:05:39.259Z,6.30
2018-04-25T06:08:42.587Z,12.43
2018-04-25T06:11:45.895Z,9.40
2018-04-25T06:14:49.221Z,15.23
2018-04-25T06:17:52.532Z,10.60
2018-04-25T06:20:55.848Z,16.37
2018-04-25T06:23:59.166Z,14.37
2018-04-25T06:27:02.599Z,13.20
2018-04-25T06:30:05.929Z,11.23
2018-04-25T06:33:09.237Z,11.80
2018-04-25T06:36:12.554Z,9.43
2018-04-25T06:39:15.853Z,6.40
2018-04-25T06:42:19.174Z,6.23
2018-04-25T06:45:23.249Z,4.57
2018-04-25T06:48:26.578Z,4.80
2018-04-25T06:51:30.650Z,3.60
2018-04-25T06:54:33.978Z,3.53
2018-04-25T06:57:37.305Z,5.47
2018-04-25T07:00:40.614Z,4.13
2018-04-25T07:03:43.933Z,5.63
2018-04-25T07:06:47.252Z,6.57
2018-04-25T07:09:50.554Z,3.70
2018-04-25T07:12:53.881Z,3.13
2018-04-25T07:15:57.941Z,2.60
2018-04-25T07:19:01.269Z,5.20
2018-04-25T07:22:04.570Z,5.97
2018-04-25T07:25:07.893Z,1.87
2018-04-25T07:28:11.194Z,2.10
2018-04-25T07:31:14.514Z,2.03
2018-04-25T07:34:17.809Z,2.77
2018-04-25T07:37:21.134Z,1.93
2018-04-25T07:40:24.433Z,1.77
2018-04-25T07:43:27.761Z,1.90
2018-04-25T07:46:31.850Z,3.87
2018-04-25T07:49:35.184Z,2.63
2018-04-25T07:52:38.505Z,1.73
2018-04-25T07:55:41.856Z,2.40
2018-04-25T07:58:45.937Z,2.97
2018-04-25T08:01:49.235Z,7.23
2018-04-25T08:04:52.550Z,4.27
2018-04-25T08:07:55.861Z,5.07
2018-04-25T08:10:59.957Z,4.93
2018-04-25T08:14:20.788Z,3.00
2018-04-25T08:17:42.533Z,3.07
2018-04-25T08:24:30.529Z,3.37
2018-04-25T08:27:33.837Z,5.77
2018-04-25T08:30:37.169Z,4.97
2018-04-25T08:33:42.082Z,3.80
2018-04-25T08:36:45.400Z,10.30
2018-04-25T08:39:49.483Z,3.03
2018-04-25T08:42:52.786Z,3.30
2018-04-25T08:45:56.105Z,3.43
2018-04-25T08:49:00.172Z,5.37
2018-04-25T08:52:03.485Z,8.33
2018-04-25T08:55:06.785Z,4.03
2018-04-25T08:58:10.100Z,10.20
2018-04-25T09:01:13.424Z,3.73
2018-04-25T09:04:17.490Z,2.03
2018-04-25T09:07:20.802Z,2.03
2018-04-25T09:10:24.105Z,0.97
2018-04-25T09:13:28.362Z,0.73
2018-04-25T09:16:31.661Z,0.77
2018-04-25T09:19:34.969Z,2.43
2018-04-25T09:22:38.289Z,0.90
2018-04-25T09:25:41.588Z,0.43
2018-04-25T09:28:44.901Z,1.00
2018-04-25T09:31:48.237Z,0.83
2018-04-25T09:34:51.529Z,0.50
2018-04-25T09:37:54.841Z,0.73
2018-04-25T09:40:58.132Z,1.50
2018-04-25T09:44:01.462Z,1.43
2018-04-25T09:47:04.770Z,0.40
2018-04-25T09:50:08.878Z,0.27
2018-04-25T09:53:12.173Z,0.20
2018-04-25T09:56:15.502Z,0.30
2018-04-25T09:59:18.801Z,0.97
2018-04-25T10:02:28.421Z,1.57
2018-04-25T10:05:31.761Z,0.63
2018-04-25T10:08:35.076Z,0.20
2018-04-25T10:11:38.397Z,1.10
2018-04-25T10:14:41.696Z,0.40
2018-04-25T10:17:45.029Z,0.60
2018-04-25T10:20:49.096Z,0.50
2018-04-25T10:23:52.432Z,0.87
2018-04-25T10:26:55.727Z,1.43
2018-04-25T10:29:59.048Z,0.93
2018-04-25T10:33:02.344Z,0.30
2018-04-25T10:36:05.674Z,0.50
2018-04-25T10:39:08.981Z,0.40
2018-04-25T10:42:12.297Z,0.60
2018-04-25T10:45:15.596Z,0.80
2018-04-25T10:48:18.925Z,1.70
2018-04-25T10:51:22.257Z,0.83
2018-04-25T10:54:25.562Z,3.30
2018-04-25T10:57:28.897Z,0.90
2018-04-25T11:00:32.973Z,1.37
2018-04-25T11:03:36.303Z,1.07
2018-04-25T11:06:39.648Z,0.80
2018-04-25T11:09:43.019Z,1.63
2018-04-25T11:12:46.345Z,0.87
2018-04-25T11:15:49.646Z,0.83
2018-04-25T11:18:52.997Z,1.07
2018-04-25T11:21:57.109Z,3.10
2018-04-25T11:25:01.173Z,2.47
2018-04-25T11:28:04.493Z,2.50
2018-04-25T11:31:07.826Z,3.13
2018-04-25T11:34:11.926Z,3.40
2018-04-25T11:37:15.225Z,5.37
2018-04-25T11:40:19.305Z,6.57
2018-04-25T11:43:22.609Z,4.17
2018-04-25T11:46:25.924Z,3.80
2018-04-25T11:49:29.226Z,2.80
2018-04-25T11:52:32.553Z,4.70
2018-04-25T11:55:35.886Z,3.43
2018-04-25T11:58:39.186Z,4.67
2018-04-25T12:01:42.500Z,4.93
2018-04-25T12:04:45.803Z,3.70
2018-04-25T12:07:49.888Z,3.67
2018-04-25T12:10:53.188Z,5.07
2018-04-25T12:13:56.513Z,4.80
2018-04-25T12:17:00.014Z,6.57
2018-04-25T12:20:03.368Z,7.57
2018-04-25T12:23:06.645Z,5.80
2018-04-25T12:26:09.966Z,6.70
2018-04-25T12:29:13.269Z,6.83
2018-04-25T12:32:16.597Z,7.33
2018-04-25T12:35:20.682Z,5.30
2018-04-25T12:38:23.994Z,8.23
2018-04-25T12:41:27.361Z,10.07
2018-04-25T12:44:30.661Z,7.13
2018-04-25T12:47:33.997Z,7.87
2018-04-25T12:50:37.305Z,9.17
2018-04-25T12:53:41.389Z,12.53
2018-04-25T12:56:44.699Z,8.67
2018-04-25T12:59:48.013Z,14.03
2018-04-25T13:02:52.080Z,13.40
2018-04-25T13:05:55.393Z,9.40
2018-04-25T13:08:58.721Z,9.73
2018-04-25T13:12:02.811Z,8.97
2018-04-25T13:15:06.215Z,10.00
2018-04-25T13:18:10.205Z,8.07
2018-04-25T13:21:13.567Z,6.90
2018-04-25T13:24:17.608Z,11.50
2018-04-25T13:27:20.920Z,7.37
2018-04-25T13:30:24.225Z,5.47
2018-04-25T13:33:27.549Z,6.83
2018-04-25T13:36:30.877Z,6.50
2018-04-25T13:39:34.179Z,4.53
2018-04-25T13:42:37.494Z,5.40
2018-04-25T13:45:40.797Z,5.70
2018-04-25T13:48:44.128Z,6.20
2018-04-25T13:51:48.194Z,3.37
2018-04-25T13:54:51.513Z,6.33
2018-04-25T13:57:54.870Z,7.83
2018-04-25T14:00:58.955Z,5.30
2018-04-25T14:04:02.272Z,5.53
2018-04-25T14:07:05.597Z,5.07
2018-04-25T14:10:08.966Z,6.47
2018-04-25T14:13:12.271Z,5.40
2018-04-25T14:16:15.590Z,5.73
2018-04-25T14:19:18.912Z,6.70
2018-04-25T14:22:22.485Z,6.73
2018-04-25T14:25:25.827Z,5.97
2018-04-25T14:28:29.913Z,5.97
2018-04-25T14:31:33.224Z,5.40
2018-04-25T14:34:36.544Z,5.73
2018-04-25T14:37:40.618Z,5.53
2018-04-25T14:40:43.945Z,8.20
2018-04-25T14:43:48.014Z,7.90
2018-04-25T14:46:51.333Z,3.63
2018-04-25T14:49:54.645Z,9.63
2018-04-25T14:52:57.980Z,2.50
2018-04-25T14:56:01.302Z,6.90
2018-04-25T14:59:05.211Z,5.23
2018-04-25T15:02:08.590Z,6.37
2018-04-25T15:05:11.889Z,7.63
2018-04-25T15:08:15.209Z,9.03
2018-04-25T15:11:18.517Z,3.93
2018-04-25T15:14:21.834Z,8.73
2018-04-25T15:17:25.169Z,5.60
2018-04-25T15:20:28.473Z,6.63
2018-04-25T15:23:31.801Z,3.83
2018-04-25T15:26:35.118Z,8.67
2018-04-25T15:29:38.438Z,4.30
2018-04-25T15:32:42.505Z,5.70
2018-04-25T15:35:45.820Z,3.07
2018-04-25T15:38:49.139Z,5.13
2018-04-25T15:41:53.206Z,4.07
2018-04-25T15:44:56.526Z,3.13
2018-04-25T15:47:59.823Z,3.77
2018-04-25T15:51:03.141Z,2.73
2018-04-25T15:54:07.209Z,2.80
2018-04-25T15:57:10.533Z,5.23
2018-04-25T16:00:13.832Z,3.13
2018-04-25T16:03:17.153Z,4.70
2018-04-25T16:06:20.469Z,4.67
2018-04-25T16:09:23.788Z,5.37
2018-04-25T16:12:27.184Z,5.40
2018-04-25T16:15:30.450Z,7.57
2018-04-25T16:18:33.745Z,3.00
2018-04-25T16:21:37.061Z,4.27
2018-04-25T16:24:40.368Z,4.30
2018-04-25T16:27:43.930Z,3.60
2018-04-25T16:30:47.356Z,5.27
2018-04-25T16:33:50.602Z,2.63
2018-04-25T16:36:53.927Z,4.57
2018-04-25T16:39:57.236Z,4.43
2018-04-25T16:43:00.577Z,3.47
2018-04-25T16:46:03.892Z,4.47
2018-04-25T16:49:07.217Z,4.17
2018-04-25T16:52:10.513Z,5.83
2018-04-25T16:55:13.837Z,3.20
2018-04-25T16:58:17.128Z,2.83
2018-04-25T17:01:20.454Z,2.57
2018-04-25T17:04:23.753Z,5.90
2018-04-25T17:07:27.080Z,4.13
2018-04-25T17:10:31.149Z,4.40
2018-04-25T17:13:34.478Z,6.47
2018-04-25T17:16:37.777Z,4.97
2018-04-25T17:19:41.089Z,9.07
2018-04-25T17:22:45.173Z,26.50
2018-04-25T17:25:48.736Z,98.57
2018-04-25T17:28:52.119Z,71.67
2018-04-25T17:31:55.458Z,10.27
2018-04-25T17:34:58.750Z,8.03
2018-04-25T17:38:02.068Z,3.50
2018-04-25T17:41:05.390Z,3.90
2018-04-25T17:44:09.455Z,5.87
2018-04-25T17:47:12.772Z,5.33
2018-04-25T17:50:16.080Z,5.90
2018-04-25T17:53:19.414Z,4.97
2018-04-25T17:56:23.476Z,6.07
2018-04-25T17:59:26.793Z,5.43
2018-04-25T18:02:30.874Z,8.43
2018-04-25T18:05:34.196Z,6.13
2018-04-25T18:08:37.517Z,4.37
2018-04-25T18:11:40.854Z,4.50
2018-04-25T18:14:44.144Z,5.90
2018-04-25T18:17:47.467Z,3.30
2018-04-25T18:20:50.771Z,7.70
2018-04-25T18:23:54.150Z,6.80
2018-04-25T18:26:57.477Z,11.17
2018-04-25T18:30:00.818Z,24.63
2018-04-25T18:33:04.323Z,13.97
2018-04-25T18:36:07.898Z,8.57
2018-04-25T18:39:11.298Z,7.50
2018-04-25T18:42:16.285Z,15.90
2018-04-25T18:45:19.756Z,24.57
2018-04-25T18:48:23.303Z,70.53
2018-04-25T18:51:26.854Z,42.63
2018-04-25T18:54:30.399Z,31.03
2018-04-25T18:57:33.800Z,32.93
2018-04-25T19:00:37.715Z,205.20
2018-04-25T19:03:41.160Z,14.30
2018-04-25T19:06:44.635Z,160.83
2018-04-25T19:09:48.214Z,128.03
2018-04-25T19:12:51.595Z,55.40
2018-04-25T19:15:54.995Z,59.90
2018-04-25T19:18:58.408Z,21.20
2018-04-25T19:22:01.852Z,22.70
2018-04-25T19:25:05.226Z,20.30
2018-04-25T19:28:08.635Z,22.43
2018-04-25T19:31:12.053Z,23.77
2018-04-25T19:34:15.887Z,21.53
2018-04-25T19:37:20.204Z,31.03
2018-04-25T19:40:23.694Z,28.13
2018-04-25T19:43:27.284Z,25.00
2018-04-25T19:46:30.652Z,56.60
2018-04-25T19:49:35.026Z,36.07
2018-04-25T19:52:39.399Z,24.30
2018-04-25T19:55:42.808Z,28.90
2018-04-25T19:58:46.275Z,43.70
2018-04-25T20:01:50.674Z,32.17
2018-04-25T20:04:54.369Z,29.77
2018-04-25T20:07:57.783Z,56.07
2018-04-25T20:11:01.423Z,40.33
2018-04-25T20:14:04.931Z,62.70
2018-04-25T20:17:08.367Z,49.43
2018-04-25T20:20:12.498Z,46.80
2018-04-25T20:23:16.240Z,42.50
2018-04-25T20:26:19.704Z,41.80
2018-04-25T20:29:23.587Z,35.90
2018-04-25T20:32:26.960Z,32.37
2018-04-25T20:35:30.296Z,25.33
2018-04-25T20:38:33.621Z,59.67
2018-04-25T20:41:36.966Z,36.07
2018-04-25T20:44:40.334Z,73.03
2018-04-25T20:47:43.665Z,43.30
2018-04-25T20:50:46.974Z,57.30
2018-04-25T20:53:50.309Z,67.07
2018-04-25T20:56:53.922Z,57.60
2018-04-25T20:59:57.301Z,48.63
2018-04-25T21:03:00.843Z,60.60
2018-04-25T21:06:04.205Z,59.53
2018-04-25T21:09:07.558Z,102.93
2018-04-25T21:12:10.879Z,143.60
2018-04-25T21:15:14.210Z,47.53
2018-04-25T21:18:18.321Z,49.53
2018-04-25T21:21:21.667Z,32.17
2018-04-25T21:24:25.000Z,51.67
2018-04-25T21:27:28.334Z,44.97
2018-04-25T21:30:32.450Z,62.77
2018-04-25T21:33:36.583Z,43.00
2018-04-25T21:36:40.694Z,20.30
2018-04-25T21:39:44.025Z,21.30
2018-04-25T21:42:47.333Z,17.37
2018-04-25T21:45:50.694Z,19.50
2018-04-25T21:48:54.025Z,18.73
2018-04-25T21:51:57.365Z,14.40
2018-04-25T21:55:01.513Z,24.50
2018-04-25T21:58:04.931Z,19.50
2018-04-25T22:01:08.185Z,21.67
2018-04-25T22:04:12.002Z,20.50
2018-04-25T22:07:15.350Z,19.53
2018-04-25T22:10:18.751Z,22.20
2018-04-25T22:13:22.094Z,23.57
2018-04-25T22:16:25.454Z,27.20
2018-04-25T22:19:28.769Z,23.00
2018-04-25T22:22:32.875Z,21.43
2018-04-25T22:25:36.973Z,17.00
2018-04-25T22:28:40.327Z,22.93
2018-04-25T22:31:43.761Z,19.97
2018-04-25T22:34:47.097Z,16.33
2018-04-25T22:37:51.252Z,18.23
2018-04-25T22:40:54.588Z,16.13
2018-04-25T22:43:57.932Z,18.60
2018-04-25T22:47:01.258Z,20.13
2018-04-25T22:50:04.635Z,19.23
2018-04-25T22:53:07.974Z,18.80
2018-04-25T22:56:11.315Z,17.63
2018-04-25T22:59:14.675Z,20.27
2018-04-25T23:02:18.009Z,18.90
2018-04-25T23:05:21.370Z,13.00
2018-04-25T23:08:24.695Z,17.30
2018-04-25T23:11:28.026Z,17.80
2018-04-25T23:14:31.353Z,14.03
2018-04-25T23:17:35.095Z,19.70
2018-04-25T23:20:38.489Z,10.63
2018-04-25T23:23:41.834Z,8.53
2018-04-25T23:26:45.189Z,11.17
2018-04-25T23:29:48.551Z,13.83
2018-04-25T23:32:51.967Z,12.43
2018-04-25T23:35:55.258Z,14.43
2018-04-25T23:38:59.333Z,13.53
2018-04-25T23:42:03.005Z,11.30
2018-04-25T23:45:06.325Z,13.13
2018-04-25T23:48:10.438Z,9.00
2018-04-25T23:51:13.764Z,9.67
2018-04-25T23:54:17.097Z,10.10
2018-04-25T23:57:21.168Z,14.47
